createdAt,value
2019-04-23T00:02:36.835Z,4.40
2019-04-23T00:05:13.152Z,4.27
2019-04-23T00:15:21.515Z,4.50
2019-04-23T00:17:48.137Z,4.43
2019-04-23T00:20:20.594Z,4.13
2019-04-23T00:26:09.218Z,4.30
2019-04-23T00:28:55.811Z,4.13
2019-04-23T00:31:20.857Z,3.67
2019-04-23T00:33:43.775Z,4.03
2019-04-23T00:36:26.001Z,3.67
2019-04-23T00:38:50.272Z,4.50
2019-04-23T00:41:24.789Z,3.87
2019-04-23T00:44:01.850Z,3.93
2019-04-23T00:46:28.922Z,3.80
2019-04-23T00:49:05.834Z,4.33
2019-04-23T00:51:37.944Z,3.97
2019-04-23T00:54:09.189Z,3.80
2019-04-23T00:56:54.175Z,3.80
2019-04-23T00:59:05.339Z,3.30
2019-04-23T01:04:13.892Z,3.33
2019-04-23T01:06:46.043Z,3.50
2019-04-23T01:09:14.220Z,3.83
2019-04-23T01:11:49.673Z,3.70
2019-04-23T01:14:20.206Z,3.83
2019-04-23T01:16:55.174Z,3.70
2019-04-23T01:22:00.147Z,3.50
2019-04-23T01:24:46.672Z,3.37
2019-04-23T01:30:17.903Z,3.90
2019-04-23T01:32:51.378Z,3.57
2019-04-23T01:35:18.904Z,3.47
2019-04-23T01:37:50.846Z,3.30
2019-04-23T01:43:08.011Z,3.57
2019-04-23T01:45:26.943Z,3.63
2019-04-23T01:48:00.013Z,3.47
2019-04-23T01:50:36.848Z,3.30
2019-04-23T01:55:44.010Z,3.27
2019-04-23T01:58:27.434Z,3.93
2019-04-23T02:01:00.877Z,3.60
2019-04-23T02:03:18.159Z,3.73
2019-04-23T02:05:48.283Z,3.50
2019-04-23T02:08:22.459Z,3.40
2019-04-23T02:10:56.287Z,3.97
2019-04-23T02:13:31.268Z,3.60
2019-04-23T02:16:17.535Z,3.60
2019-04-23T02:18:33.886Z,3.83
2019-04-23T02:21:07.782Z,3.97
2019-04-23T02:23:44.715Z,4.10
2019-04-23T02:26:25.779Z,3.60
2019-04-23T02:29:14.555Z,3.60
2019-04-23T02:31:44.905Z,3.80
2019-04-23T02:34:00.894Z,3.67
2019-04-23T02:36:32.310Z,3.83
2019-04-23T02:44:20.024Z,3.70
2019-04-23T02:46:43.878Z,3.93
2019-04-23T02:49:38.202Z,3.40
2019-04-23T02:54:36.755Z,3.53
2019-04-23T02:59:30.756Z,3.73
2019-04-23T03:02:05.879Z,3.67
2019-04-23T03:07:08.743Z,3.73
2019-04-23T03:09:43.196Z,3.10
2019-04-23T03:12:26.601Z,4.20
2019-04-23T03:14:40.207Z,3.90
2019-04-23T03:17:16.229Z,4.07
2019-04-23T03:20:10.686Z,3.50
2019-04-23T03:23:12.288Z,3.70
2019-04-23T03:25:35.916Z,3.47
2019-04-23T03:28:11.901Z,4.10
2019-04-23T03:41:02.269Z,4.20
2019-04-23T03:43:34.024Z,4.00
2019-04-23T03:51:01.370Z,4.40
2019-04-23T03:56:10.983Z,5.10
2019-04-23T03:58:47.488Z,4.80
2019-04-23T04:01:27.509Z,4.67
2019-04-23T04:04:22.755Z,4.50
2019-04-23T04:09:08.123Z,4.20
2019-04-23T04:11:34.335Z,4.63
2019-04-23T04:14:18.302Z,4.37
2019-04-23T04:16:42.620Z,5.10
2019-04-23T04:19:16.792Z,4.20
2019-04-23T04:21:58.434Z,4.30
2019-04-23T04:24:24.800Z,6.83
2019-04-23T04:29:27.493Z,4.40
2019-04-23T04:31:52.403Z,4.67
2019-04-23T04:37:27.287Z,4.43
2019-04-23T04:39:33.488Z,3.90
2019-04-23T04:42:26.604Z,4.17
2019-04-23T04:47:36.211Z,4.47
2019-04-23T04:49:58.569Z,4.30
2019-04-23T04:52:43.765Z,3.63
2019-04-23T04:55:03.326Z,4.50
2019-04-23T05:02:53.123Z,4.80
2019-04-23T05:05:46.326Z,4.47
2019-04-23T05:10:36.290Z,4.10
2019-04-23T05:12:59.414Z,4.23
2019-04-23T05:15:25.157Z,5.00
2019-04-23T05:18:23.655Z,4.90
2019-04-23T05:20:53.481Z,4.10
2019-04-23T05:23:54.554Z,4.30
2019-04-23T05:26:17.542Z,4.83
2019-04-23T05:33:57.114Z,4.83
2019-04-23T05:36:32.355Z,5.10
2019-04-23T05:44:02.264Z,5.00
2019-04-23T05:46:33.139Z,4.63
2019-04-23T05:49:07.631Z,4.80
2019-04-23T05:51:48.904Z,4.70
2019-04-23T05:54:06.731Z,5.07
2019-04-23T05:56:38.542Z,5.50
2019-04-23T05:59:14.401Z,4.97
2019-04-23T06:01:54.244Z,5.17
2019-04-23T06:04:27.079Z,5.60
2019-04-23T06:07:11.370Z,4.80
2019-04-23T06:12:01.443Z,7.40
2019-04-23T06:17:09.615Z,4.63
2019-04-23T06:19:24.600Z,5.00
2019-04-23T06:24:49.058Z,5.07
2019-04-23T06:27:13.326Z,5.33
2019-04-23T06:29:39.756Z,5.53
2019-04-23T06:32:14.356Z,5.30
2019-04-23T06:34:56.895Z,5.10
2019-04-23T06:37:16.918Z,5.40
2019-04-23T06:39:55.451Z,4.80
2019-04-23T06:42:23.362Z,5.30
2019-04-23T06:44:57.633Z,5.40
2019-04-23T06:47:24.786Z,5.33
2019-04-23T06:49:58.182Z,5.30
2019-04-23T06:52:25.400Z,5.77
2019-04-23T06:55:09.122Z,4.80
2019-04-23T06:57:31.796Z,5.80
2019-04-23T07:00:27.898Z,7.80
2019-04-23T07:02:47.298Z,5.73
2019-04-23T07:05:21.122Z,5.13
2019-04-23T07:07:50.046Z,5.70
2019-04-23T07:10:23.849Z,5.90
2019-04-23T07:15:42.499Z,6.30
2019-04-23T07:17:58.785Z,5.53
2019-04-23T07:20:28.604Z,7.43
2019-04-23T07:23:08.374Z,5.40
2019-04-23T07:25:32.765Z,4.93
2019-04-23T07:28:13.191Z,5.77
2019-04-23T07:30:47.251Z,5.90
2019-04-23T07:33:11.862Z,4.87
2019-04-23T07:35:47.625Z,13.53
2019-04-23T07:39:06.322Z,6.93
2019-04-23T07:44:42.624Z,5.50
2019-04-23T07:50:09.748Z,5.77
2019-04-23T07:52:33.794Z,6.20
2019-04-23T07:55:02.299Z,5.50
2019-04-23T07:57:54.996Z,6.90
2019-04-23T08:00:07.559Z,6.00
2019-04-23T08:05:15.600Z,7.10
2019-04-23T08:07:46.577Z,8.20
2019-04-23T08:10:14.012Z,7.60
2019-04-23T08:12:48.043Z,5.60
2019-04-23T08:15:22.990Z,5.40
2019-04-23T08:17:54.226Z,6.50
2019-04-23T08:20:25.827Z,6.40
2019-04-23T08:22:57.119Z,6.00
2019-04-23T08:25:56.277Z,5.97
2019-04-23T08:28:25.523Z,6.13
2019-04-23T08:30:45.379Z,6.33
2019-04-23T08:33:17.452Z,6.50
2019-04-23T08:35:58.980Z,6.70
2019-04-23T08:38:33.819Z,6.23
2019-04-23T08:41:13.102Z,10.40
2019-04-23T08:43:42.723Z,6.27
2019-04-23T08:46:17.175Z,5.83
2019-04-23T08:51:34.370Z,6.00
2019-04-23T08:53:47.576Z,6.57
2019-04-23T08:56:21.821Z,7.43
2019-04-23T08:58:47.546Z,6.30
2019-04-23T09:01:24.582Z,6.47
2019-04-23T09:03:56.106Z,6.10
2019-04-23T09:06:29.032Z,6.57
2019-04-23T09:09:04.252Z,6.97
2019-04-23T09:13:59.494Z,6.27
2019-04-23T09:16:42.412Z,6.43
2019-04-23T09:21:42.870Z,6.83
2019-04-23T09:24:11.812Z,7.17
2019-04-23T09:26:50.493Z,7.27
2019-04-23T09:29:19.162Z,12.13
2019-04-23T09:32:22.400Z,8.03
2019-04-23T09:35:14.306Z,8.03
2019-04-23T09:37:52.664Z,8.43
2019-04-23T09:43:31.388Z,8.77
2019-04-23T09:46:29.581Z,8.97
2019-04-23T09:51:30.198Z,8.63
2019-04-23T09:54:05.328Z,8.60
2019-04-23T09:56:37.751Z,9.80
2019-04-23T09:59:20.942Z,10.93
2019-04-23T10:01:29.061Z,9.93
2019-04-23T10:03:57.059Z,9.43
2019-04-23T10:06:23.294Z,10.20
2019-04-23T10:08:54.029Z,10.73
2019-04-23T10:11:22.279Z,10.57
2019-04-23T10:13:54.657Z,10.57
2019-04-23T10:16:28.441Z,10.77
2019-04-23T10:19:00.667Z,9.30
2019-04-23T10:21:31.209Z,9.07
2019-04-23T10:24:03.219Z,9.13
2019-04-23T10:26:34.324Z,8.73
2019-04-23T10:29:18.325Z,9.17
2019-04-23T10:31:49.464Z,12.40
2019-04-23T10:34:21.133Z,9.77
2019-04-23T10:36:51.665Z,7.97
2019-04-23T10:39:28.319Z,9.43
2019-04-23T10:41:55.446Z,8.87
2019-04-23T10:44:38.631Z,8.77
2019-04-23T10:47:54.347Z,8.23
2019-04-23T10:53:32.880Z,8.73
2019-04-23T10:58:31.862Z,8.87
2019-04-23T11:01:04.580Z,8.80
2019-04-23T11:08:38.709Z,9.03
2019-04-23T11:11:16.672Z,9.37
2019-04-23T11:13:50.301Z,8.60
2019-04-23T11:18:57.115Z,9.30
2019-04-23T11:21:27.661Z,9.33
2019-04-23T11:24:04.527Z,9.27
2019-04-23T11:26:42.817Z,9.80
2019-04-23T11:29:02.159Z,9.83
2019-04-23T11:31:39.532Z,9.13
2019-04-23T11:34:12.255Z,8.90
2019-04-23T11:39:16.155Z,9.03
2019-04-23T11:44:22.166Z,9.47
2019-04-23T11:46:58.893Z,9.63
2019-04-23T11:49:34.238Z,9.73
2019-04-23T11:54:24.194Z,8.63
2019-04-23T12:02:07.155Z,8.63
2019-04-23T12:08:11.538Z,8.53
2019-04-23T12:11:00.484Z,8.80
2019-04-23T12:13:28.403Z,9.03
2019-04-23T12:15:56.904Z,8.00
2019-04-23T12:21:00.122Z,9.80
2019-04-23T12:26:13.108Z,8.80
2019-04-23T12:28:44.051Z,8.73
2019-04-23T12:31:16.201Z,9.40
2019-04-23T12:33:50.518Z,11.73
2019-04-23T12:36:36.942Z,9.40
2019-04-23T12:39:11.200Z,14.00
2019-04-23T12:41:49.183Z,9.03
2019-04-23T12:44:10.941Z,10.10
2019-04-23T12:46:45.738Z,9.67
2019-04-23T12:49:35.729Z,11.27
2019-04-23T12:51:47.194Z,10.90
2019-04-23T12:54:34.861Z,10.67
2019-04-23T12:57:07.296Z,10.80
2019-04-23T12:59:23.834Z,17.20
2019-04-23T13:02:03.585Z,10.70
2019-04-23T13:04:38.304Z,11.07
2019-04-23T13:07:03.164Z,15.93
2019-04-23T13:09:51.198Z,10.93
2019-04-23T13:12:12.050Z,10.60
2019-04-23T13:14:52.231Z,11.83
2019-04-23T13:17:39.705Z,11.27
2019-04-23T13:20:00.556Z,11.27
2019-04-23T13:22:23.431Z,11.27
2019-04-23T13:25:18.191Z,10.37
2019-04-23T13:30:31.509Z,11.07
2019-04-23T13:33:00.088Z,10.90
2019-04-23T13:38:06.880Z,11.40
2019-04-23T13:40:42.129Z,12.20
2019-04-23T13:43:14.505Z,11.00
2019-04-23T13:45:59.278Z,11.47
2019-04-23T13:50:51.571Z,12.03
2019-04-23T13:55:49.110Z,11.70
2019-04-23T14:01:13.988Z,12.77
2019-04-23T14:03:39.627Z,11.90
2019-04-23T14:16:29.849Z,11.90
2019-04-23T14:24:16.715Z,11.40
2019-04-23T14:29:00.520Z,11.07
2019-04-23T14:34:19.702Z,12.13
2019-04-23T14:36:44.087Z,12.57
2019-04-23T14:39:14.133Z,12.47
2019-04-23T14:41:44.357Z,11.30
2019-04-23T14:47:03.767Z,11.33
2019-04-23T14:52:10.506Z,10.40
2019-04-23T14:55:17.435Z,11.70
2019-04-23T14:59:37.591Z,9.33
2019-04-23T15:02:12.524Z,8.63
2019-04-23T15:07:22.344Z,9.23
2019-04-23T15:09:57.654Z,9.47
2019-04-23T15:12:30.171Z,10.17
2019-04-23T15:15:05.854Z,10.43
2019-04-23T15:17:28.858Z,10.50
2019-04-23T15:20:03.018Z,10.23
2019-04-23T15:22:42.201Z,10.07
2019-04-23T15:25:19.532Z,11.70
2019-04-23T15:30:04.190Z,13.53
2019-04-23T15:32:56.550Z,12.73
2019-04-23T15:40:23.384Z,12.37
2019-04-23T15:42:58.098Z,12.67
2019-04-23T15:45:21.331Z,12.80
2019-04-23T15:48:03.547Z,13.47
2019-04-23T15:55:36.842Z,18.03
2019-04-23T15:58:22.928Z,17.87
2019-04-23T16:00:39.721Z,20.33
2019-04-23T16:02:44.071Z,21.03
2019-04-23T16:05:17.016Z,18.80
2019-04-23T16:08:06.100Z,16.10
2019-04-23T16:10:54.555Z,15.07
2019-04-23T16:13:27.663Z,13.43
2019-04-23T16:16:03.037Z,12.73
2019-04-23T16:18:56.779Z,13.07
2019-04-23T16:21:14.535Z,14.80
2019-04-23T16:23:43.831Z,15.07
2019-04-23T16:26:14.640Z,13.20
2019-04-23T16:31:23.855Z,13.00
2019-04-23T16:34:06.848Z,12.73
2019-04-23T16:36:35.864Z,12.73
2019-04-23T16:39:07.465Z,12.27
2019-04-23T16:41:39.885Z,10.87
2019-04-23T16:44:17.743Z,11.27
2019-04-23T16:46:41.747Z,11.70
2019-04-23T16:51:43.559Z,11.87
2019-04-23T16:59:18.644Z,15.17
2019-04-23T17:02:01.388Z,12.23
2019-04-23T17:04:24.871Z,11.13
2019-04-23T17:06:58.242Z,9.03
2019-04-23T17:09:38.600Z,9.83
2019-04-23T17:12:06.405Z,9.10
2019-04-23T17:14:30.690Z,9.23
2019-04-23T17:16:59.277Z,8.30
2019-04-23T17:19:40.893Z,9.50
2019-04-23T17:22:13.133Z,9.27
2019-04-23T17:24:46.134Z,12.73
2019-04-23T17:27:22.872Z,13.17
2019-04-23T17:29:51.054Z,11.67
2019-04-23T17:32:36.810Z,11.47
2019-04-23T17:35:04.683Z,16.83
2019-04-23T17:37:32.518Z,15.70
2019-04-23T17:40:18.127Z,18.03
2019-04-23T17:42:55.399Z,16.40
2019-04-23T17:45:32.396Z,11.60
2019-04-23T17:48:13.217Z,12.40
2019-04-23T17:56:08.462Z,10.50
2019-04-23T18:03:51.577Z,11.27
2019-04-23T18:08:53.946Z,11.07
2019-04-23T18:11:31.231Z,11.83
2019-04-23T18:13:57.393Z,10.93
2019-04-23T18:16:35.545Z,10.20
2019-04-23T18:19:06.444Z,10.70
2019-04-23T18:24:36.526Z,10.47
2019-04-23T18:27:19.001Z,10.13
2019-04-23T18:29:54.895Z,12.13
2019-04-23T18:33:00.533Z,13.07
2019-04-23T18:35:21.492Z,11.60
2019-04-23T18:37:41.568Z,12.73
2019-04-23T18:40:12.176Z,11.23
2019-04-23T18:45:32.731Z,10.27
2019-04-23T18:48:31.389Z,10.93
2019-04-23T18:53:28.005Z,10.67
2019-04-23T18:56:05.681Z,10.57
2019-04-23T18:58:22.362Z,10.43
2019-04-23T19:03:55.362Z,10.40
2019-04-23T19:06:36.923Z,10.50
2019-04-23T19:09:47.436Z,12.37
2019-04-23T19:12:44.409Z,15.27
2019-04-23T19:15:21.260Z,10.40
2019-04-23T19:20:26.126Z,10.03
2019-04-23T19:27:57.487Z,9.63
2019-04-23T19:30:41.728Z,9.83
2019-04-23T19:33:14.211Z,9.50
2019-04-23T19:38:17.738Z,9.57
2019-04-23T19:40:51.871Z,9.90
2019-04-23T19:43:18.159Z,8.63
2019-04-23T19:46:34.676Z,8.60
2019-04-23T19:48:27.118Z,8.67
2019-04-23T19:53:53.579Z,8.97
2019-04-23T19:56:09.249Z,8.40
2019-04-23T19:58:38.520Z,8.43
2019-04-23T20:01:15.031Z,9.27
2019-04-23T20:06:08.161Z,9.30
2019-04-23T20:09:03.311Z,8.83
2019-04-23T20:11:14.538Z,8.83
2019-04-23T20:13:54.178Z,9.50
2019-04-23T20:16:30.540Z,9.37
2019-04-23T20:18:52.401Z,9.70
2019-04-23T20:21:19.304Z,9.57
2019-04-23T20:26:41.382Z,9.20
2019-04-23T20:29:36.068Z,9.40
2019-04-23T20:34:45.333Z,10.03
2019-04-23T20:37:12.635Z,10.13
2019-04-23T20:39:46.590Z,10.80
2019-04-23T20:47:15.285Z,10.73
2019-04-23T20:49:46.595Z,10.87
2019-04-23T20:52:08.876Z,11.93
2019-04-23T21:00:12.356Z,12.20
2019-04-23T21:05:26.396Z,12.00
2019-04-23T21:08:06.101Z,12.40
2019-04-23T21:15:45.596Z,11.67
2019-04-23T21:18:22.847Z,12.83
2019-04-23T21:21:00.609Z,12.67
2019-04-23T21:23:21.268Z,13.07
2019-04-23T21:25:52.459Z,13.07
2019-04-23T21:28:37.270Z,10.77
2019-04-23T21:31:06.366Z,11.60
2019-04-23T21:33:45.994Z,12.10
2019-04-23T21:36:44.401Z,11.20
2019-04-23T21:39:23.042Z,11.60
2019-04-23T21:42:22.400Z,10.80
2019-04-23T21:44:47.501Z,11.00
2019-04-23T21:47:28.835Z,9.77
2019-04-23T21:52:29.188Z,10.37
2019-04-23T21:54:56.821Z,9.97
2019-04-23T22:00:02.609Z,9.47
2019-04-23T22:02:49.203Z,9.50
2019-04-23T22:05:09.367Z,9.53
2019-04-23T22:07:51.904Z,9.70
2019-04-23T22:10:11.381Z,10.13
2019-04-23T22:13:07.367Z,9.60
2019-04-23T22:15:22.258Z,10.07
2019-04-23T22:23:05.473Z,9.37
2019-04-23T22:25:40.014Z,9.30
2019-04-23T22:28:07.502Z,9.33
2019-04-23T22:30:45.915Z,9.47
2019-04-23T22:35:37.805Z,9.43
2019-04-23T22:38:13.288Z,8.80
2019-04-23T22:40:41.025Z,9.07
2019-04-23T22:43:37.724Z,9.20
2019-04-23T22:48:46.154Z,9.67
2019-04-23T22:51:15.160Z,9.67
2019-04-23T22:53:43.676Z,9.53
2019-04-23T22:58:33.527Z,9.70
2019-04-23T23:01:23.038Z,9.10
2019-04-23T23:03:51.315Z,9.20
2019-04-23T23:06:29.530Z,9.23
2019-04-23T23:09:13.541Z,10.37
2019-04-23T23:11:34.958Z,10.73
2019-04-23T23:16:39.237Z,9.17
2019-04-23T23:19:14.177Z,8.50
2019-04-23T23:21:54.507Z,9.33
2019-04-23T23:26:50.350Z,8.90
2019-04-23T23:29:15.472Z,8.50
2019-04-23T23:37:48.135Z,8.67
2019-04-23T23:41:58.968Z,7.73
2019-04-23T23:47:14.698Z,7.00
2019-04-23T23:49:36.358Z,7.50
2019-04-23T23:52:27.934Z,7.23
2019-04-23T23:54:39.316Z,7.73
2019-04-23T23:57:12.540Z,7.37
